sensor_id;sensor_type;location;lat;lon;timestamp;pressure;altitude;pressure_sealevel;temperature;humidity
18985;BME280;9626;52.552;13.436;2023-12-04T00:00:05;101541.16;;;-2.14;100.00
18985;BME280;9626;52.552;13.436;2023-12-04T00:02:32;101528.34;;;-2.29;100.00
18985;BME280;9626;52.552;13.436;2023-12-04T00:04:58;101533.91;;;-2.22;100.00
18985;BME280;9626;52.552;13.436;2023-12-04T00:07:24;101530.50;;;-2.21;100.00
18985;BME280;9626;52.552;13.436;2023-12-04T00:09:51;101531.25;;;-2.23;100.00
18985;BME280;9626;52.552;13.436;2023-12-04T00:12:17;101532.34;;;-2.18;100.00
18985;BME280;9626;52.552;13.436;2023-12-04T00:14:43;101525.75;;;-2.29;100.00
18985;BME280;9626;52.552;13.436;2023-12-04T00:17:09;101532.47;;;-2.34;100.00
18985;BME280;9626;52.552;13.436;2023-12-04T00:19:35;101526.22;;;-2.38;100.00
18985;BME280;9626;52.552;13.436;2023-12-04T00:22:01;101524.25;;;-2.44;100.00
18985;BME280;9626;52.552;13.436;2023-12-04T00:24:27;101521.66;;;-2.44;100.00
18985;BME280;9626;52.552;13.436;2023-12-04T00:26:53;101518.09;;;-2.46;100.00
18985;BME280;9626;52.552;13.436;2023-12-04T00:29:19;101512.69;;;-2.50;100.00
18985;BME280;9626;52.552;13.436;2023-12-04T00:31:45;101522.84;;;-2.55;100.00
18985;BME280;9626;52.552;13.436;2023-12-04T00:34:11;101523.59;;;-2.58;100.00
18985;BME280;9626;52.552;13.436;2023-12-04T00:36:38;101532.78;;;-2.64;100.00
18985;BME280;9626;52.552;13.436;2023-12-04T00:39:04;101532.78;;;-2.64;100.00
18985;BME280;9626;52.552;13.436;2023-12-04T00:41:31;101536.34;;;-2.62;100.00
18985;BME280;9626;52.552;13.436;2023-12-04T00:43:57;101532.25;;;-2.57;100.00
18985;BME280;9626;52.552;13.436;2023-12-04T00:46:23;101543.44;;;-2.58;100.00
18985;BME280;9626;52.552;13.436;2023-12-04T00:48:49;101535.91;;;-2.53;100.00
18985;BME280;9626;52.552;13.436;2023-12-04T00:51:15;101542.09;;;-2.50;100.00
18985;BME280;9626;52.552;13.436;2023-12-04T00:53:41;101543.16;;;-2.64;100.00
18985;BME280;9626;52.552;13.436;2023-12-04T00:56:08;101539.31;;;-2.73;100.00
18985;BME280;9626;52.552;13.436;2023-12-04T00:58:34;101548.66;;;-2.94;100.00
18985;BME280;9626;52.552;13.436;2023-12-04T01:01:00;101553.66;;;-2.97;100.00
18985;BME280;9626;52.552;13.436;2023-12-04T01:03:26;101541.81;;;-2.92;100.00
18985;BME280;9626;52.552;13.436;2023-12-04T01:05:52;101548.66;;;-2.94;100.00
18985;BME280;9626;52.552;13.436;2023-12-04T01:08:18;101545.41;;;-2.90;100.00
18985;BME280;9626;52.552;13.436;2023-12-04T01:10:44;101538.75;;;-2.85;100.00
18985;BME280;9626;52.552;13.436;2023-12-04T01:13:10;101533.25;;;-2.91;100.00
18985;BME280;9626;52.552;13.436;2023-12-04T01:15:36;101532.50;;;-2.89;100.00
18985;BME280;9626;52.552;13.436;2023-12-04T01:18:02;101530.56;;;-2.93;100.00
18985;BME280;9626;52.552;13.436;2023-12-04T01:20:29;101522.50;;;-2.81;100.00
18985;BME280;9626;52.552;13.436;2023-12-04T01:22:55;101524.34;;;-2.78;100.00
18985;BME280;9626;52.552;13.436;2023-12-04T01:25:21;101525.97;;;-2.80;100.00
18985;BME280;9626;52.552;13.436;2023-12-04T01:27:47;101531.09;;;-2.82;100.00
18985;BME280;9626;52.552;13.436;2023-12-04T01:30:13;101535.84;;;-2.91;100.00
18985;BME280;9626;52.552;13.436;2023-12-04T01:32:39;101526.72;;;-3.01;100.00
18985;BME280;9626;52.552;13.436;2023-12-04T01:35:06;101522.72;;;-2.94;100.00
18985;BME280;9626;52.552;13.436;2023-12-04T01:37:32;101510.38;;;-3.00;100.00
18985;BME280;9626;52.552;13.436;2023-12-04T01:39:58;101512.78;;;-3.03;100.00
18985;BME280;9626;52.552;13.436;2023-12-04T01:42:24;101498.81;;;-3.07;100.00
18985;BME280;9626;52.552;13.436;2023-12-04T01:44:50;101502.34;;;-3.04;100.00
18985;BME280;9626;52.552;13.436;2023-12-04T01:47:17;101498.88;;;-3.05;100.00
18985;BME280;9626;52.552;13.436;2023-12-04T01:49:43;101500.94;;;-2.98;100.00
18985;BME280;9626;52.552;13.436;2023-12-04T01:52:10;101500.34;;;-2.92;100.00
18985;BME280;9626;52.552;13.436;2023-12-04T01:54:38;101495.75;;;-2.80;100.00
18985;BME280;9626;52.552;13.436;2023-12-04T01:57:05;101496.06;;;-2.92;100.00
18985;BME280;9626;52.552;13.436;2023-12-04T01:59:32;101489.91;;;-2.94;100.00
18985;BME280;9626;52.552;13.436;2023-12-04T02:01:58;101491.69;;;-2.93;100.00
18985;BME280;9626;52.552;13.436;2023-12-04T02:04:25;101493.09;;;-2.99;100.00
18985;BME280;9626;52.552;13.436;2023-12-04T02:06:51;101486.66;;;-3.08;100.00
18985;BME280;9626;52.552;13.436;2023-12-04T02:09:17;101488.13;;;-3.13;100.00
18985;BME280;9626;52.552;13.436;2023-12-04T02:11:43;101491.91;;;-3.06;100.00
18985;BME280;9626;52.552;13.436;2023-12-04T02:14:09;101488.00;;;-3.16;100.00
18985;BME280;9626;52.552;13.436;2023-12-04T02:16:38;101484.34;;;-3.01;100.00
18985;BME280;9626;52.552;13.436;2023-12-04T02:19:11;101483.63;;;-3.17;100.00
18985;BME280;9626;52.552;13.436;2023-12-04T02:21:39;101482.00;;;-3.15;100.00
18985;BME280;9626;52.552;13.436;2023-12-04T02:24:05;101476.50;;;-3.21;100.00
18985;BME280;9626;52.552;13.436;2023-12-04T02:26:44;101473.84;;;-3.04;100.00
18985;BME280;9626;52.552;13.436;2023-12-04T02:29:18;101472.91;;;-3.07;100.00
18985;BME280;9626;52.552;13.436;2023-12-04T02:31:48;101475.69;;;-3.02;100.00
18985;BME280;9626;52.552;13.436;2023-12-04T02:34:16;101470.31;;;-3.07;100.00
18985;BME280;9626;52.552;13.436;2023-12-04T02:36:43;101466.72;;;-3.09;100.00
18985;BME280;9626;52.552;13.436;2023-12-04T02:39:10;101464.81;;;-3.13;100.00
18985;BME280;9626;52.552;13.436;2023-12-04T02:41:36;101456.00;;;-3.34;100.00
18985;BME280;9626;52.552;13.436;2023-12-04T02:44:03;101447.41;;;-3.33;100.00
18985;BME280;9626;52.552;13.436;2023-12-04T02:46:29;101457.78;;;-3.33;100.00
18985;BME280;9626;52.552;13.436;2023-12-04T02:48:54;101453.19;;;-3.39;100.00
18985;BME280;9626;52.552;13.436;2023-12-04T02:51:21;101448.00;;;-3.39;100.00
18985;BME280;9626;52.552;13.436;2023-12-04T02:53:48;101451.78;;;-3.32;100.00
18985;BME280;9626;52.552;13.436;2023-12-04T02:56:14;101457.09;;;-3.29;100.00
18985;BME280;9626;52.552;13.436;2023-12-04T02:58:40;101448.53;;;-3.28;100.00
18985;BME280;9626;52.552;13.436;2023-12-04T03:01:07;101448.53;;;-3.28;100.00
18985;BME280;9626;52.552;13.436;2023-12-04T03:03:33;101440.75;;;-3.28;100.00
18985;BME280;9626;52.552;13.436;2023-12-04T03:05:59;101442.00;;;-3.20;100.00
18985;BME280;9626;52.552;13.436;2023-12-04T03:08:25;101447.88;;;-3.24;100.00
18985;BME280;9626;52.552;13.436;2023-12-04T03:10:51;101440.31;;;-3.19;100.00
18985;BME280;9626;52.552;13.436;2023-12-04T03:13:17;101434.00;;;-3.25;100.00
18985;BME280;9626;52.552;13.436;2023-12-04T03:15:43;101434.38;;;-3.17;100.00
18985;BME280;9626;52.552;13.436;2023-12-04T03:18:09;101432.78;;;-3.15;100.00
18985;BME280;9626;52.552;13.436;2023-12-04T03:20:35;101431.00;;;-3.16;100.00
18985;BME280;9626;52.552;13.436;2023-12-04T03:23:01;101432.38;;;-3.23;100.00
18985;BME280;9626;52.552;13.436;2023-12-04T03:25:27;101422.22;;;-3.18;100.00
18985;BME280;9626;52.552;13.436;2023-12-04T03:27:53;101426.63;;;-3.35;100.00
18985;BME280;9626;52.552;13.436;2023-12-04T03:30:20;101421.19;;;-3.40;100.00
18985;BME280;9626;52.552;13.436;2023-12-04T03:32:46;101423.06;;;-3.37;100.00
18985;BME280;9626;52.552;13.436;2023-12-04T03:35:12;101420.03;;;-3.28;100.00
18985;BME280;9626;52.552;13.436;2023-12-04T03:37:38;101413.41;;;-3.40;100.00
18985;BME280;9626;52.552;13.436;2023-12-04T03:40:06;101407.50;;;-3.55;100.00
18985;BME280;9626;52.552;13.436;2023-12-04T03:42:32;101413.59;;;-3.36;100.00
18985;BME280;9626;52.552;13.436;2023-12-04T03:44:58;101413.28;;;-3.43;100.00
18985;BME280;9626;52.552;13.436;2023-12-04T03:47:24;101421.44;;;-3.53;100.00
18985;BME280;9626;52.552;13.436;2023-12-04T03:49:51;101416.31;;;-3.69;100.00
18985;BME280;9626;52.552;13.436;2023-12-04T03:52:17;101406.09;;;-3.48;100.00
18985;BME280;9626;52.552;13.436;2023-12-04T03:54:43;101416.59;;;-3.63;100.00
18985;BME280;9626;52.552;13.436;2023-12-04T03:57:08;101406.09;;;-3.48;100.00
18985;BME280;9626;52.552;13.436;2023-12-04T03:59:34;101396.41;;;-3.52;100.00
18985;BME280;9626;52.552;13.436;2023-12-04T04:02:00;101394.63;;;-3.53;100.00
18985;BME280;9626;52.552;13.436;2023-12-04T04:04:26;101390.94;;;-3.41;100.00
18985;BME280;9626;52.552;13.436;2023-12-04T04:06:52;101385.78;;;-3.41;100.00
18985;BME280;9626;52.552;13.436;2023-12-04T04:13:00;101377.25;;;-3.20;100.00
18985;BME280;9626;52.552;13.436;2023-12-04T04:15:26;101381.31;;;-3.25;100.00
18985;BME280;9626;52.552;13.436;2023-12-04T04:17:52;101387.75;;;-3.17;100.00
18985;BME280;9626;52.552;13.436;2023-12-04T04:20:18;101387.22;;;-3.28;100.00
18985;BME280;9626;52.552;13.436;2023-12-04T04:22:44;101382.13;;;-3.26;100.00
18985;BME280;9626;52.552;13.436;2023-12-04T04:25:12;101378.13;;;-3.37;100.00
18985;BME280;9626;52.552;13.436;2023-12-04T04:27:38;101388.88;;;-3.30;100.00
18985;BME280;9626;52.552;13.436;2023-12-04T04:30:05;101390.19;;;-3.20;100.00
18985;BME280;9626;52.552;13.436;2023-12-04T04:32:31;101390.63;;;-3.47;100.00
18985;BME280;9626;52.552;13.436;2023-12-04T04:34:57;101389.84;;;-3.46;100.00
18985;BME280;9626;52.552;13.436;2023-12-04T04:37:23;101396.13;;;-3.41;100.00
18985;BME280;9626;52.552;13.436;2023-12-04T04:39:49;101387.38;;;-3.43;100.00
18985;BME280;9626;52.552;13.436;2023-12-04T04:42:15;101383.38;;;-3.36;100.00
18985;BME280;9626;52.552;13.436;2023-12-04T04:44:41;101384.06;;;-3.40;100.00
18985;BME280;9626;52.552;13.436;2023-12-04T04:47:08;101384.59;;;-3.65;100.00
18985;BME280;9626;52.552;13.436;2023-12-04T04:49:34;101380.72;;;-3.55;100.00
18985;BME280;9626;52.552;13.436;2023-12-04T04:52:01;101377.03;;;-3.43;100.00
18985;BME280;9626;52.552;13.436;2023-12-04T04:54:31;101383.31;;;-3.55;100.00
18985;BME280;9626;52.552;13.436;2023-12-04T04:56:58;101380.66;;;-3.57;100.00
18985;BME280;9626;52.552;13.436;2023-12-04T04:59:24;101382.06;;;-3.64;100.00
18985;BME280;9626;52.552;13.436;2023-12-04T05:01:50;101370.44;;;-3.54;100.00
18985;BME280;9626;52.552;13.436;2023-12-04T05:04:16;101364.06;;;-3.43;100.00
18985;BME280;9626;52.552;13.436;2023-12-04T05:06:42;101370.31;;;-3.57;100.00
18985;BME280;9626;52.552;13.436;2023-12-04T05:09:08;101374.50;;;-3.41;100.00
18985;BME280;9626;52.552;13.436;2023-12-04T05:11:34;101362.69;;;-3.54;100.00
18985;BME280;9626;52.552;13.436;2023-12-04T05:14:00;101366.31;;;-3.32;100.00
18985;BME280;9626;52.552;13.436;2023-12-04T05:16:26;101365.47;;;-3.31;100.00
18985;BME280;9626;52.552;13.436;2023-12-04T05:18:52;101367.13;;;-3.33;100.00
18985;BME280;9626;52.552;13.436;2023-12-04T05:21:18;101351.72;;;-3.30;100.00
18985;BME280;9626;52.552;13.436;2023-12-04T05:23:44;101350.69;;;-3.34;100.00
18985;BME280;9626;52.552;13.436;2023-12-04T05:26:10;101347.66;;;-3.43;100.00
18985;BME280;9626;52.552;13.436;2023-12-04T05:28:36;101344.03;;;-3.47;100.00
18985;BME280;9626;52.552;13.436;2023-12-04T05:31:02;101340.56;;;-3.47;100.00
18985;BME280;9626;52.552;13.436;2023-12-04T05:33:28;101338.03;;;-3.46;100.00
18985;BME280;9626;52.552;13.436;2023-12-04T05:35:54;101338.31;;;-3.40;100.00
18985;BME280;9626;52.552;13.436;2023-12-04T05:38:20;101333.66;;;-3.47;100.00
18985;BME280;9626;52.552;13.436;2023-12-04T05:40:46;101331.78;;;-3.31;100.00
18985;BME280;9626;52.552;13.436;2023-12-04T05:43:12;101339.56;;;-3.31;100.00
18985;BME280;9626;52.552;13.436;2023-12-04T05:45:39;101335.06;;;-3.35;100.00
18985;BME280;9626;52.552;13.436;2023-12-04T05:48:05;101332.47;;;-3.35;100.00
18985;BME280;9626;52.552;13.436;2023-12-04T05:50:31;101333.38;;;-3.53;100.00
18985;BME280;9626;52.552;13.436;2023-12-04T05:52:57;101335.31;;;-3.49;100.00
18985;BME280;9626;52.552;13.436;2023-12-04T05:55:24;101335.44;;;-3.46;100.00
18985;BME280;9626;52.552;13.436;2023-12-04T05:57:50;101333.06;;;-3.41;100.00
18985;BME280;9626;52.552;13.436;2023-12-04T06:00:18;101335.31;;;-3.49;100.00
18985;BME280;9626;52.552;13.436;2023-12-04T06:02:44;101324.03;;;-3.49;100.00
18985;BME280;9626;52.552;13.436;2023-12-04T06:05:11;101328.88;;;-3.57;100.00
18985;BME280;9626;52.552;13.436;2023-12-04T06:07:37;101323.88;;;-3.34;100.00
18985;BME280;9626;52.552;13.436;2023-12-04T06:10:05;101329.59;;;-3.42;100.00
18985;BME280;9626;52.552;13.436;2023-12-04T06:12:31;101328.47;;;-3.47;100.00
18985;BME280;9626;52.552;13.436;2023-12-04T06:14:58;101328.78;;;-3.41;100.00
18985;BME280;9626;52.552;13.436;2023-12-04T06:17:26;101322.41;;;-3.29;100.00
18985;BME280;9626;52.552;13.436;2023-12-04T06:19:53;101327.88;;;-3.23;100.00
18985;BME280;9626;52.552;13.436;2023-12-04T06:22:19;101323.44;;;-3.26;100.00
18985;BME280;9626;52.552;13.436;2023-12-04T06:24:47;101321.34;;;-3.15;100.00
18985;BME280;9626;52.552;13.436;2023-12-04T06:27:17;101323.88;;;-3.34;100.00
18985;BME280;9626;52.552;13.436;2023-12-04T06:29:47;101317.78;;;-3.17;100.00
18985;BME280;9626;52.552;13.436;2023-12-04T06:32:15;101310.38;;;-3.09;100.00
18985;BME280;9626;52.552;13.436;2023-12-04T06:34:41;101312.91;;;-3.11;100.00
18985;BME280;9626;52.552;13.436;2023-12-04T06:37:11;101315.69;;;-3.06;100.00
18985;BME280;9626;52.552;13.436;2023-12-04T06:39:39;101321.75;;;-3.06;100.00
18985;BME280;9626;52.552;13.436;2023-12-04T06:42:07;101311.69;;;-2.99;100.00
18985;BME280;9626;52.552;13.436;2023-12-04T06:44:33;101309.16;;;-2.98;100.00
18985;BME280;9626;52.552;13.436;2023-12-04T06:47:03;101309.22;;;-2.96;100.00
18985;BME280;9626;52.552;13.436;2023-12-04T06:49:31;101314.88;;;-2.85;100.00
18985;BME280;9626;52.552;13.436;2023-12-04T06:51:58;101312.78;;;-2.75;100.00
18985;BME280;9626;52.552;13.436;2023-12-04T06:54:24;101302.53;;;-2.72;100.00
18985;BME280;9626;52.552;13.436;2023-12-04T06:56:50;101315.78;;;-2.85;100.00
18985;BME280;9626;52.552;13.436;2023-12-04T06:59:20;101304.94;;;-2.76;100.00
18985;BME280;9626;52.552;13.436;2023-12-04T07:01:46;101302.75;;;-2.86;100.00
18985;BME280;9626;52.552;13.436;2023-12-04T07:04:13;101299.13;;;-2.70;100.00
18985;BME280;9626;52.552;13.436;2023-12-04T07:06:39;101288.06;;;-2.66;100.00
18985;BME280;9626;52.552;13.436;2023-12-04T07:09:06;101287.38;;;-2.62;100.00
18985;BME280;9626;52.552;13.436;2023-12-04T07:11:35;101278.38;;;-2.70;100.00
18985;BME280;9626;52.552;13.436;2023-12-04T07:14:01;101280.34;;;-2.65;100.00
18985;BME280;9626;52.552;13.436;2023-12-04T07:16:27;101279.41;;;-2.67;100.00
18985;BME280;9626;52.552;13.436;2023-12-04T07:18:53;101278.22;;;-2.54;100.00
18985;BME280;9626;52.552;13.436;2023-12-04T07:21:20;101280.81;;;-2.54;100.00
18985;BME280;9626;52.552;13.436;2023-12-04T07:23:45;101281.09;;;-2.48;100.00
18985;BME280;9626;52.552;13.436;2023-12-04T07:26:12;101275.34;;;-2.41;100.00
18985;BME280;9626;52.552;13.436;2023-12-04T07:28:38;101282.44;;;-2.36;100.00
18985;BME280;9626;52.552;13.436;2023-12-04T07:31:04;101276.72;;;-2.49;100.00
18985;BME280;9626;52.552;13.436;2023-12-04T07:33:30;101274.00;;;-2.52;100.00
18985;BME280;9626;52.552;13.436;2023-12-04T07:35:58;101276.78;;;-2.47;100.00
18985;BME280;9626;52.552;13.436;2023-12-04T07:38:25;101278.75;;;-2.42;100.00
18985;BME280;9626;52.552;13.436;2023-12-04T07:40:52;101278.22;;;-2.54;100.00
18985;BME280;9626;52.552;13.436;2023-12-04T07:43:18;101284.66;;;-2.65;100.00
18985;BME280;9626;52.552;13.436;2023-12-04T07:45:48;101282.19;;;-2.62;100.00
18985;BME280;9626;52.552;13.436;2023-12-04T07:48:14;101279.72;;;-2.59;100.00
18985;BME280;9626;52.552;13.436;2023-12-04T07:50:40;101276.88;;;-2.65;100.00
18985;BME280;9626;52.552;13.436;2023-12-04T07:53:06;101278.78;;;-2.61;100.00
18985;BME280;9626;52.552;13.436;2023-12-04T07:55:35;101273.66;;;-2.60;100.00
18985;BME280;9626;52.552;13.436;2023-12-04T07:58:02;101263.28;;;-2.60;100.00
18985;BME280;9626;52.552;13.436;2023-12-04T08:00:28;101272.56;;;-2.65;100.00
18985;BME280;9626;52.552;13.436;2023-12-04T08:02:55;101269.81;;;-2.69;100.00
18985;BME280;9626;52.552;13.436;2023-12-04T08:05:21;101269.50;;;-2.56;100.00
18985;BME280;9626;52.552;13.436;2023-12-04T08:07:47;101267.03;;;-2.53;100.00
18985;BME280;9626;52.552;13.436;2023-12-04T08:10:13;101265.94;;;-2.39;100.00
18985;BME280;9626;52.552;13.436;2023-12-04T08:12:39;101264.50;;;-2.51;100.00
18985;BME280;9626;52.552;13.436;2023-12-04T08:15:07;101270.09;;;-2.42;100.00
18985;BME280;9626;52.552;13.436;2023-12-04T08:17:34;101273.66;;;-2.19;100.00
18985;BME280;9626;52.552;13.436;2023-12-04T08:20:02;101271.19;;;-2.16;100.00
18985;BME280;9626;52.552;13.436;2023-12-04T08:22:30;101266.09;;;-2.13;100.00
18985;BME280;9626;52.552;13.436;2023-12-04T08:24:58;101258.91;;;-2.20;100.00
18985;BME280;9626;52.552;13.436;2023-12-04T08:27:25;101259.22;;;-2.12;100.00
18985;BME280;9626;52.552;13.436;2023-12-04T08:29:56;101264.31;;;-2.15;100.00
18985;BME280;9626;52.552;13.436;2023-12-04T08:32:28;101267.31;;;-2.26;100.00
18985;BME280;9626;52.552;13.436;2023-12-04T08:34:54;101261.50;;;-1.99;100.00
18985;BME280;9626;52.552;13.436;2023-12-04T08:37:21;101260.22;;;-2.09;100.00
18985;BME280;9626;52.552;13.436;2023-12-04T08:39:50;101266.06;;;-1.93;100.00
18985;BME280;9626;52.552;13.436;2023-12-04T08:42:16;101260.16;;;-1.89;100.00
18985;BME280;9626;52.552;13.436;2023-12-04T08:44:42;101263.72;;;-2.08;100.00
18985;BME280;9626;52.552;13.436;2023-12-04T08:47:09;101261.94;;;-1.88;100.00
18985;BME280;9626;52.552;13.436;2023-12-04T08:49:44;101257.38;;;-1.94;100.00
18985;BME280;9626;52.552;13.436;2023-12-04T08:52:11;101256.81;;;-1.87;100.00
18985;BME280;9626;52.552;13.436;2023-12-04T08:54:41;101254.97;;;-1.89;100.00
18985;BME280;9626;52.552;13.436;2023-12-04T08:57:08;101252.38;;;-1.66;100.00
18985;BME280;9626;52.552;13.436;2023-12-04T08:59:34;101260.34;;;-1.84;100.00
18985;BME280;9626;52.552;13.436;2023-12-04T09:02:01;101254.38;;;-1.82;100.00
18985;BME280;9626;52.552;13.436;2023-12-04T09:04:32;101256.03;;;-1.84;100.00
18985;BME280;9626;52.552;13.436;2023-12-04T09:06:59;101250.91;;;-1.82;100.00
18985;BME280;9626;52.552;13.436;2023-12-04T09:09:25;101263.34;;;-1.74;100.00
18985;BME280;9626;52.552;13.436;2023-12-04T09:11:56;101259.88;;;-1.74;100.00
18985;BME280;9626;52.552;13.436;2023-12-04T09:14:23;101256.75;;;-1.65;100.00
18985;BME280;9626;52.552;13.436;2023-12-04T09:16:49;101257.28;;;-1.74;100.00
18985;BME280;9626;52.552;13.436;2023-12-04T09:19:15;101257.53;;;-1.68;100.00
18985;BME280;9626;52.552;13.436;2023-12-04T09:21:42;101255.81;;;-1.67;100.00
18985;BME280;9626;52.552;13.436;2023-12-04T09:24:11;101254.00;;;-1.70;100.00
18985;BME280;9626;52.552;13.436;2023-12-04T09:26:41;101260.16;;;-1.66;100.00
18985;BME280;9626;52.552;13.436;2023-12-04T09:29:07;101256.81;;;-1.41;100.00
18985;BME280;9626;52.552;13.436;2023-12-04T09:31:34;101259.78;;;-1.32;100.00
18985;BME280;9626;52.552;13.436;2023-12-04T09:34:02;101262.38;;;-1.32;100.00
18985;BME280;9626;52.552;13.436;2023-12-04T09:36:28;101261.00;;;-1.45;100.00
18985;BME280;9626;52.552;13.436;2023-12-04T09:38:56;101262.69;;;-1.47;100.00
18985;BME280;9626;52.552;13.436;2023-12-04T09:41:26;101253.44;;;-1.61;100.00
18985;BME280;9626;52.552;13.436;2023-12-04T09:43:52;101251.63;;;-1.64;100.00
18985;BME280;9626;52.552;13.436;2023-12-04T09:46:20;101247.09;;;-1.47;100.00
18985;BME280;9626;52.552;13.436;2023-12-04T09:48:47;101243.47;;;-1.50;100.00
18985;BME280;9626;52.552;13.436;2023-12-04T09:51:14;101240.81;;;-1.52;100.00
18985;BME280;9626;52.552;13.436;2023-12-04T09:53:41;101233.59;;;-1.61;100.00
18985;BME280;9626;52.552;13.436;2023-12-04T09:56:08;101235.56;;;-1.54;100.00
18985;BME280;9626;52.552;13.436;2023-12-04T09:58:37;101240.72;;;-1.55;100.00
18985;BME280;9626;52.552;13.436;2023-12-04T10:01:06;101226.78;;;-1.57;100.00
18985;BME280;9626;52.552;13.436;2023-12-04T10:03:33;101226.78;;;-1.34;100.00
18985;BME280;9626;52.552;13.436;2023-12-04T10:06:00;101225.63;;;-1.18;100.00
18985;BME280;9626;52.552;13.436;2023-12-04T10:08:26;101218.91;;;-1.12;100.00
18985;BME280;9626;52.552;13.436;2023-12-04T10:10:52;101218.03;;;-1.12;100.00
18985;BME280;9626;52.552;13.436;2023-12-04T10:13:18;101219.53;;;-1.19;100.00
18985;BME280;9626;52.552;13.436;2023-12-04T10:15:48;101222.75;;;-1.26;100.00
18985;BME280;9626;52.552;13.436;2023-12-04T10:18:30;101213.22;;;-1.26;100.00
18985;BME280;9626;52.552;13.436;2023-12-04T10:20:58;101219.94;;;-0.84;100.00
18985;BME280;9626;52.552;13.436;2023-12-04T10:23:41;101219.19;;;-0.80;100.00
18985;BME280;9626;52.552;13.436;2023-12-04T10:26:10;101211.25;;;-0.84;100.00
18985;BME280;9626;52.552;13.436;2023-12-04T10:28:58;101203.88;;;-0.72;100.00
18985;BME280;9626;52.552;13.436;2023-12-04T10:31:33;101202.13;;;-0.97;100.00
18985;BME280;9626;52.552;13.436;2023-12-04T10:34:02;101205.16;;;-0.59;100.00
18985;BME280;9626;52.552;13.436;2023-12-04T10:36:30;101193.66;;;-0.66;100.00
18985;BME280;9626;52.552;13.436;2023-12-04T10:38:58;101193.19;;;-0.54;100.00
18985;BME280;9626;52.552;13.436;2023-12-04T10:41:26;101189.78;;;-0.53;100.00
18985;BME280;9626;52.552;13.436;2023-12-04T10:43:52;101184.03;;;-0.69;100.00
18985;BME280;9626;52.552;13.436;2023-12-04T10:46:19;101179.19;;;-0.58;100.00
18985;BME280;9626;52.552;13.436;2023-12-04T10:48:47;101167.56;;;-0.16;100.00
18985;BME280;9626;52.552;13.436;2023-12-04T10:51:17;101170.53;;;-0.04;100.00
18985;BME280;9626;52.552;13.436;2023-12-04T10:53:43;101171.16;;;-0.65;100.00
18985;BME280;9626;52.552;13.436;2023-12-04T10:56:20;101164.22;;;-0.39;100.00
18985;BME280;9626;52.552;13.436;2023-12-04T10:58:53;101166.59;;;-0.18;100.00
18985;BME280;9626;52.552;13.436;2023-12-04T11:01:20;101162.38;;;-0.42;100.00
18985;BME280;9626;52.552;13.436;2023-12-04T11:03:52;101156.44;;;-0.10;100.00
18985;BME280;9626;52.552;13.436;2023-12-04T11:06:21;101143.91;;;-0.22;100.00
18985;BME280;9626;52.552;13.436;2023-12-04T11:08:48;101142.16;;;0.04;100.00
18985;BME280;9626;52.552;13.436;2023-12-04T11:11:21;101134.53;;;0.12;100.00
18985;BME280;9626;52.552;13.436;2023-12-04T11:13:53;101134.00;;;-0.07;100.00
18985;BME280;9626;52.552;13.436;2023-12-04T11:18:58;101130.03;;;0.06;100.00
18985;BME280;9626;52.552;13.436;2023-12-04T11:21:28;101136.72;;;-0.31;100.00
18985;BME280;9626;52.552;13.436;2023-12-04T11:23:54;101136.47;;;-0.39;100.00
18985;BME280;9626;52.552;13.436;2023-12-04T11:26:21;101130.69;;;-0.30;100.00
18985;BME280;9626;52.552;13.436;2023-12-04T11:28:48;101128.63;;;-0.11;100.00
18985;BME280;9626;52.552;13.436;2023-12-04T11:31:15;101119.44;;;0.00;100.00
18985;BME280;9626;52.552;13.436;2023-12-04T11:33:41;101124.03;;;0.09;100.00
18985;BME280;9626;52.552;13.436;2023-12-04T11:36:11;101127.19;;;-0.02;100.00
18985;BME280;9626;52.552;13.436;2023-12-04T11:38:38;101119.44;;;-0.27;100.00
18985;BME280;9626;52.552;13.436;2023-12-04T11:41:21;101121.72;;;-0.11;100.00
18985;BME280;9626;52.552;13.436;2023-12-04T11:43:47;101115.31;;;-0.21;100.00
18985;BME280;9626;52.552;13.436;2023-12-04T11:46:18;101113.84;;;-0.12;100.00
18985;BME280;9626;52.552;13.436;2023-12-04T11:48:55;101105.56;;;0.01;100.00
18985;BME280;9626;52.552;13.436;2023-12-04T11:54:09;101113.66;;;0.41;100.00
18985;BME280;9626;52.552;13.436;2023-12-04T11:56:36;101113.91;;;0.18;100.00
18985;BME280;9626;52.552;13.436;2023-12-04T11:59:05;101111.69;;;0.32;100.00
18985;BME280;9626;52.552;13.436;2023-12-04T12:01:38;101104.88;;;0.67;100.00
18985;BME280;9626;52.552;13.436;2023-12-04T12:04:06;101104.13;;;0.72;100.00
18985;BME280;9626;52.552;13.436;2023-12-04T12:06:32;101103.44;;;0.79;100.00
18985;BME280;9626;52.552;13.436;2023-12-04T12:08:58;101104.91;;;0.37;100.00
18985;BME280;9626;52.552;13.436;2023-12-04T12:11:26;101096.63;;;0.52;100.00
18985;BME280;9626;52.552;13.436;2023-12-04T12:13:53;101084.81;;;0.65;100.00
18985;BME280;9626;52.552;13.436;2023-12-04T12:16:19;101089.19;;;0.99;100.00
18985;BME280;9626;52.552;13.436;2023-12-04T12:18:46;101091.16;;;0.75;100.00
18985;BME280;9626;52.552;13.436;2023-12-04T12:21:12;101086.53;;;0.64;100.00
18985;BME280;9626;52.552;13.436;2023-12-04T12:23:39;101078.16;;;0.76;100.00
18985;BME280;9626;52.552;13.436;2023-12-04T12:26:07;101076.63;;;0.51;100.00
18985;BME280;9626;52.552;13.436;2023-12-04T12:28:35;101080.06;;;0.50;100.00
18985;BME280;9626;52.552;13.436;2023-12-04T12:31:02;101067.72;;;0.43;100.00
18985;BME280;9626;52.552;13.436;2023-12-04T12:33:32;101068.53;;;0.42;100.00
18985;BME280;9626;52.552;13.436;2023-12-04T12:35:59;101073.41;;;0.29;100.00
18985;BME280;9626;52.552;13.436;2023-12-04T12:38:27;101063.06;;;0.32;100.00
18985;BME280;9626;52.552;13.436;2023-12-04T12:40:53;101050.69;;;0.24;100.00
18985;BME280;9626;52.552;13.436;2023-12-04T12:43:20;101040.81;;;0.13;100.00
18985;BME280;9626;52.552;13.436;2023-12-04T12:45:48;101049.81;;;0.23;100.00
18985;BME280;9626;52.552;13.436;2023-12-04T12:48:16;101051.75;;;0.30;100.00